createdAt,value
2019-02-28T00:01:37.931Z,3.93
2019-02-28T00:04:06.972Z,3.77
2019-02-28T00:06:35.651Z,4.13
2019-02-28T00:09:08.411Z,3.77
2019-02-28T00:11:39.490Z,4.03
2019-02-28T00:14:07.772Z,4.30
2019-02-28T00:16:36.448Z,4.27
2019-02-28T00:19:05.249Z,4.27
2019-02-28T00:21:34.128Z,4.43
2019-02-28T00:24:02.764Z,4.10
2019-02-28T00:26:31.402Z,4.10
2019-02-28T00:29:01.158Z,3.47
2019-02-28T00:31:30.307Z,4.03
2019-02-28T00:33:58.942Z,4.43
2019-02-28T00:36:27.885Z,4.23
2019-02-28T00:38:56.542Z,4.10
2019-02-28T00:41:25.191Z,4.67
2019-02-28T00:43:56.867Z,3.53
2019-02-28T00:46:24.599Z,3.87
2019-02-28T00:48:54.184Z,4.07
2019-02-28T00:51:22.950Z,4.17
2019-02-28T00:53:51.849Z,3.77
2019-02-28T00:56:20.756Z,3.90
2019-02-28T00:58:49.400Z,4.57
2019-02-28T01:01:18.127Z,4.27
2019-02-28T01:03:47.134Z,3.80
2019-02-28T01:06:16.415Z,3.73
2019-02-28T01:08:45.065Z,4.00
2019-02-28T01:11:14.103Z,3.93
2019-02-28T01:13:42.755Z,4.40
2019-02-28T01:16:11.530Z,4.10
2019-02-28T01:18:40.418Z,4.60
2019-02-28T01:21:09.480Z,3.93
2019-02-28T01:23:38.582Z,3.57
2019-02-28T01:26:07.313Z,3.97
2019-02-28T01:28:36.571Z,4.33
2019-02-28T01:31:05.809Z,3.93
2019-02-28T01:33:34.711Z,4.40
2019-02-28T01:36:03.399Z,4.27
2019-02-28T01:38:32.483Z,3.53
2019-02-28T01:41:01.162Z,4.33
2019-02-28T01:43:30.103Z,3.97
2019-02-28T01:45:59.018Z,4.53
2019-02-28T01:48:27.922Z,4.07
2019-02-28T01:51:00.758Z,4.10
2019-02-28T01:53:28.135Z,4.10
2019-02-28T01:55:56.795Z,4.17
2019-02-28T01:58:25.427Z,4.10
2019-02-28T02:00:57.331Z,4.27
2019-02-28T02:03:24.455Z,4.57
2019-02-28T02:05:54.019Z,4.37
2019-02-28T02:08:22.687Z,4.57
2019-02-28T02:10:54.977Z,5.03
2019-02-28T02:13:22.256Z,5.00
2019-02-28T02:15:51.984Z,4.47
2019-02-28T02:18:20.763Z,4.43
2019-02-28T02:20:49.415Z,4.13
2019-02-28T02:23:18.917Z,4.50
2019-02-28T02:25:47.663Z,4.70
2019-02-28T02:28:16.343Z,5.37
2019-02-28T02:30:50.581Z,5.77
2019-02-28T02:33:15.735Z,4.53
2019-02-28T02:35:44.773Z,5.03
2019-02-28T02:38:13.431Z,5.30
2019-02-28T02:40:42.457Z,5.23
2019-02-28T02:43:11.123Z,5.47
2019-02-28T02:45:43.372Z,5.60
2019-02-28T02:48:10.740Z,4.73
2019-02-28T02:50:39.398Z,5.40
2019-02-28T02:53:08.397Z,5.33
2019-02-28T02:55:37.030Z,5.37
2019-02-28T02:58:05.689Z,5.30
2019-02-28T03:00:34.403Z,6.13
2019-02-28T03:03:06.101Z,6.20
2019-02-28T03:05:35.942Z,5.60
2019-02-28T03:08:03.815Z,6.43
2019-02-28T03:10:32.531Z,6.07
2019-02-28T03:13:04.796Z,6.47
2019-02-28T03:15:31.521Z,6.20
2019-02-28T03:18:00.199Z,6.43
2019-02-28T03:20:28.869Z,6.90
2019-02-28T03:23:02.221Z,7.07
2019-02-28T03:25:28.945Z,6.60
2019-02-28T03:27:57.761Z,6.67
2019-02-28T03:30:30.835Z,6.57
2019-02-28T03:32:57.231Z,6.60
2019-02-28T03:35:39.973Z,7.60
2019-02-28T03:37:57.753Z,7.07
2019-02-28T03:40:26.395Z,7.93
2019-02-28T03:42:55.056Z,6.83
2019-02-28T03:45:24.034Z,7.77
2019-02-28T03:47:58.517Z,7.20
2019-02-28T03:50:23.165Z,8.07
2019-02-28T03:52:52.606Z,7.93
2019-02-28T03:55:21.262Z,7.37
2019-02-28T03:57:50.042Z,8.03
2019-02-28T04:00:19.276Z,7.53
2019-02-28T04:02:47.965Z,7.53
2019-02-28T04:05:16.767Z,8.73
2019-02-28T04:07:52.260Z,8.40
2019-02-28T04:10:16.802Z,8.00
2019-02-28T04:12:47.156Z,7.47
2019-02-28T04:15:16.147Z,8.27
2019-02-28T04:17:44.810Z,8.27
2019-02-28T04:20:13.668Z,9.13
2019-02-28T04:22:42.433Z,8.13
2019-02-28T04:25:11.290Z,8.77
2019-02-28T04:27:41.595Z,8.27
2019-02-28T04:30:10.371Z,10.20
2019-02-28T04:32:39.108Z,9.00
2019-02-28T04:35:08.379Z,8.43
2019-02-28T04:37:37.065Z,9.20
2019-02-28T04:40:06.518Z,9.67
2019-02-28T04:42:36.614Z,8.93
2019-02-28T04:45:06.997Z,8.07
2019-02-28T04:47:37.221Z,10.07
2019-02-28T04:50:06.592Z,9.43
2019-02-28T04:52:35.659Z,9.70
2019-02-28T04:55:05.217Z,10.77
2019-02-28T04:57:33.880Z,10.83
2019-02-28T05:00:05.807Z,10.83
2019-02-28T05:02:33.472Z,10.97
2019-02-28T05:05:02.463Z,10.77
2019-02-28T05:07:31.120Z,10.47
2019-02-28T05:09:59.757Z,11.70
2019-02-28T05:12:28.750Z,11.57
2019-02-28T05:14:58.408Z,11.70
2019-02-28T05:17:28.370Z,11.37
2019-02-28T05:19:57.357Z,12.17
2019-02-28T05:22:27.590Z,10.23
2019-02-28T05:24:56.727Z,11.00
2019-02-28T05:27:25.397Z,11.43
2019-02-28T05:29:54.335Z,11.93
2019-02-28T05:32:23.235Z,12.43
2019-02-28T05:34:51.964Z,12.17
2019-02-28T05:37:21.181Z,12.97
2019-02-28T05:39:49.862Z,12.33
2019-02-28T05:42:20.321Z,12.63
2019-02-28T05:44:48.912Z,12.67
2019-02-28T05:47:18.019Z,13.00
2019-02-28T05:49:47.031Z,12.03
2019-02-28T05:52:15.670Z,12.50
2019-02-28T05:54:47.203Z,13.27
2019-02-28T05:57:15.279Z,12.93
2019-02-28T05:59:43.985Z,13.17
2019-02-28T06:02:12.686Z,12.80
2019-02-28T06:04:41.413Z,12.23
2019-02-28T06:07:10.092Z,12.33
2019-02-28T06:09:38.750Z,14.10
2019-02-28T06:12:09.561Z,12.73
2019-02-28T06:14:38.554Z,13.47
2019-02-28T06:17:07.240Z,12.30
2019-02-28T06:19:35.907Z,12.70
2019-02-28T06:22:04.871Z,12.90
2019-02-28T06:24:33.523Z,13.73
2019-02-28T06:27:03.637Z,13.87
2019-02-28T06:29:32.681Z,14.23
2019-02-28T06:32:01.397Z,13.63
2019-02-28T06:34:30.226Z,15.00
2019-02-28T06:37:00.391Z,14.80
2019-02-28T06:39:29.308Z,14.60
2019-02-28T06:41:58.350Z,14.03
2019-02-28T06:44:27.745Z,14.77
2019-02-28T06:46:56.478Z,16.47
2019-02-28T06:49:25.149Z,14.40
2019-02-28T06:51:53.826Z,14.63
2019-02-28T06:54:22.521Z,14.53
2019-02-28T06:56:54.133Z,13.53
2019-02-28T06:59:21.883Z,14.23
2019-02-28T07:01:56.622Z,14.17
2019-02-28T07:04:21.235Z,14.30
2019-02-28T07:06:49.912Z,13.40
2019-02-28T07:09:18.577Z,14.27
2019-02-28T07:11:47.484Z,15.40
2019-02-28T07:14:16.707Z,15.70
2019-02-28T07:16:45.850Z,16.60
2019-02-28T07:19:14.900Z,16.60
2019-02-28T07:21:44.348Z,15.77
2019-02-28T07:24:13.599Z,14.90
2019-02-28T07:26:42.303Z,15.73
2019-02-28T07:29:12.067Z,15.40
2019-02-28T07:31:40.884Z,16.47
2019-02-28T07:34:09.907Z,15.87
2019-02-28T07:36:41.484Z,15.60
2019-02-28T07:39:09.501Z,17.37
2019-02-28T07:41:38.161Z,15.50
2019-02-28T07:44:06.809Z,16.70
2019-02-28T07:46:38.534Z,16.70
2019-02-28T07:49:06.472Z,17.97
2019-02-28T07:51:35.417Z,16.53
2019-02-28T07:54:04.491Z,16.93
2019-02-28T07:56:33.210Z,17.63
2019-02-28T07:59:05.255Z,17.90
2019-02-28T08:01:32.299Z,17.23
2019-02-28T08:04:00.995Z,18.60
2019-02-28T08:06:29.709Z,17.30
2019-02-28T08:08:58.502Z,18.10
2019-02-28T08:11:27.235Z,17.77
2019-02-28T08:13:56.160Z,18.50
2019-02-28T08:16:25.130Z,17.93
2019-02-28T08:18:53.795Z,18.80
2019-02-28T08:21:22.463Z,18.70
2019-02-28T08:23:51.108Z,18.77
2019-02-28T08:26:20.023Z,19.50
2019-02-28T08:28:48.733Z,18.90
2019-02-28T08:31:17.432Z,18.53
2019-02-28T08:33:48.132Z,19.90
2019-02-28T08:36:17.905Z,17.77
2019-02-28T08:38:46.667Z,19.57
2019-02-28T08:41:15.363Z,19.67
2019-02-28T08:43:44.625Z,19.90
2019-02-28T08:46:15.132Z,18.90
2019-02-28T08:48:44.035Z,19.53
2019-02-28T08:51:13.519Z,22.10
2019-02-28T08:53:42.430Z,19.57
2019-02-28T08:56:14.917Z,19.87
2019-02-28T08:58:46.119Z,20.07
2019-02-28T09:01:14.790Z,20.47
2019-02-28T09:03:46.598Z,20.63
2019-02-28T09:06:15.377Z,21.27
2019-02-28T09:08:44.363Z,21.30
2019-02-28T09:11:13.525Z,19.13
2019-02-28T09:13:42.972Z,20.23
2019-02-28T09:16:12.555Z,20.23
2019-02-28T09:18:41.570Z,19.93
2019-02-28T09:21:10.644Z,19.73
2019-02-28T09:23:39.647Z,20.50
2019-02-28T09:26:08.410Z,19.27
2019-02-28T09:28:37.087Z,20.90
2019-02-28T09:31:06.027Z,20.47
2019-02-28T09:33:34.755Z,20.27
2019-02-28T09:36:03.459Z,19.10
2019-02-28T09:38:32.127Z,20.73
2019-02-28T09:41:01.364Z,19.63
2019-02-28T09:43:33.236Z,18.43
2019-02-28T09:46:01.980Z,19.37
2019-02-28T09:48:33.881Z,20.17
2019-02-28T09:51:01.375Z,19.43
2019-02-28T09:53:30.115Z,20.27
2019-02-28T09:55:59.119Z,18.57
2019-02-28T09:58:29.248Z,19.50
2019-02-28T10:00:58.166Z,19.47
2019-02-28T10:03:26.987Z,19.13
2019-02-28T10:05:55.646Z,19.37
2019-02-28T10:08:24.307Z,19.10
2019-02-28T10:10:55.928Z,20.37
2019-02-28T10:13:23.412Z,18.67
2019-02-28T10:15:52.076Z,19.33
2019-02-28T10:18:20.730Z,19.10
2019-02-28T10:20:49.548Z,18.17
2019-02-28T10:23:21.195Z,19.83
2019-02-28T10:25:48.734Z,18.40
2019-02-28T10:28:17.378Z,18.50
2019-02-28T10:30:47.260Z,19.63
2019-02-28T10:33:17.379Z,19.27
2019-02-28T10:35:46.786Z,19.77
2019-02-28T10:38:15.411Z,20.30
2019-02-28T10:40:52.482Z,19.07
2019-02-28T10:43:21.354Z,20.47
2019-02-28T10:45:50.006Z,19.33
2019-02-28T10:48:19.039Z,19.95
2019-02-28T10:50:48.037Z,18.95
2019-02-28T10:53:16.692Z,19.73
2019-02-28T10:55:45.724Z,18.07
2019-02-28T10:58:15.523Z,18.12
2019-02-28T11:00:45.179Z,17.13
2019-02-28T11:03:13.995Z,19.90
2019-02-28T11:05:43.038Z,18.33
2019-02-28T11:08:14.860Z,18.03
2019-02-28T11:10:45.593Z,18.13
2019-02-28T11:13:16.104Z,18.43
2019-02-28T11:15:47.934Z,17.07
2019-02-28T11:18:15.663Z,17.63
2019-02-28T11:20:44.372Z,16.10
2019-02-28T11:23:14.779Z,17.15
2019-02-28T11:25:44.128Z,19.07
2019-02-28T11:28:13.568Z,18.80
2019-02-28T11:30:44.632Z,17.57
2019-02-28T11:33:13.302Z,18.03
2019-02-28T11:35:42.052Z,17.77
2019-02-28T11:38:11.537Z,18.30
2019-02-28T11:40:43.615Z,18.80
2019-02-28T11:43:11.317Z,17.93
2019-02-28T11:45:40.368Z,18.67
2019-02-28T11:48:09.315Z,19.50
2019-02-28T11:50:41.339Z,18.53
2019-02-28T11:53:09.244Z,18.13
2019-02-28T11:55:38.480Z,18.77
2019-02-28T11:58:07.172Z,17.23
2019-02-28T12:00:36.765Z,17.43
2019-02-28T12:03:05.994Z,16.70
2019-02-28T12:05:34.943Z,18.27
2019-02-28T12:08:09.344Z,17.93
2019-02-28T12:10:34.402Z,19.40
2019-02-28T12:13:03.142Z,18.87
2019-02-28T12:15:31.876Z,19.03
2019-02-28T12:18:03.513Z,17.97
2019-02-28T12:20:30.932Z,18.77
2019-02-28T12:22:59.610Z,19.20
2019-02-28T12:25:28.411Z,18.03
2019-02-28T12:27:59.410Z,18.70
2019-02-28T12:30:27.865Z,17.63
2019-02-28T12:32:56.878Z,17.87
2019-02-28T12:35:25.599Z,18.63
2019-02-28T12:37:55.056Z,17.60
2019-02-28T12:40:25.736Z,17.47
2019-02-28T12:42:54.415Z,19.53
2019-02-28T12:45:31.964Z,17.80
2019-02-28T12:48:00.974Z,19.13
2019-02-28T12:50:30.416Z,19.60
2019-02-28T12:52:59.280Z,20.40
2019-02-28T12:55:27.999Z,19.03
2019-02-28T12:57:57.734Z,19.50
2019-02-28T13:00:29.928Z,16.90
2019-02-28T13:02:58.567Z,17.10
2019-02-28T13:05:27.314Z,17.70
2019-02-28T13:07:56.215Z,17.40
2019-02-28T13:10:28.025Z,18.73
2019-02-28T13:13:05.520Z,19.83
2019-02-28T13:15:25.872Z,18.80
2019-02-28T13:17:54.607Z,17.90
2019-02-28T13:20:23.707Z,18.53
2019-02-28T13:22:55.561Z,17.90
2019-02-28T13:25:23.363Z,18.63
2019-02-28T13:27:53.219Z,17.13
2019-02-28T13:30:23.120Z,17.13
2019-02-28T13:32:51.842Z,17.33
2019-02-28T13:35:26.295Z,18.07
2019-02-28T13:37:55.174Z,17.17
2019-02-28T13:40:24.235Z,18.37
2019-02-28T13:42:52.921Z,17.23
2019-02-28T13:45:23.709Z,17.63
2019-02-28T13:47:52.782Z,18.97
2019-02-28T13:50:25.823Z,18.03
2019-02-28T13:52:53.712Z,18.37
2019-02-28T13:55:29.101Z,18.03
2019-02-28T13:57:58.022Z,16.50
2019-02-28T14:00:29.193Z,17.10
2019-02-28T14:03:08.895Z,16.77
2019-02-28T14:05:38.771Z,18.40
2019-02-28T14:08:09.804Z,17.73
2019-02-28T14:10:35.004Z,16.60
2019-02-28T14:13:04.419Z,17.40
2019-02-28T14:15:43.078Z,17.30
2019-02-28T14:18:12.355Z,17.80
2019-02-28T14:20:41.438Z,18.03
2019-02-28T14:23:10.194Z,17.90
2019-02-28T14:25:39.959Z,18.53
2019-02-28T14:28:09.544Z,18.47
2019-02-28T14:30:38.263Z,16.97
2019-02-28T14:33:07.292Z,17.70
2019-02-28T14:35:38.422Z,19.03
2019-02-28T14:38:06.657Z,17.53
2019-02-28T14:40:35.381Z,18.60
2019-02-28T14:43:09.808Z,20.03
2019-02-28T14:45:42.868Z,18.30
2019-02-28T14:48:09.778Z,19.07
2019-02-28T14:50:38.511Z,19.03
2019-02-28T14:53:07.395Z,19.20
2019-02-28T14:55:37.539Z,19.33
2019-02-28T14:58:06.600Z,19.70
2019-02-28T15:00:35.651Z,20.07
2019-02-28T15:03:04.584Z,18.90
2019-02-28T15:05:33.782Z,21.00
2019-02-28T15:08:03.084Z,20.80
2019-02-28T15:10:34.121Z,21.10
2019-02-28T15:13:04.659Z,21.53
2019-02-28T15:15:32.884Z,20.77
2019-02-28T15:18:01.583Z,22.13
2019-02-28T15:20:32.808Z,22.13
2019-02-28T15:23:00.805Z,20.90
2019-02-28T15:25:29.643Z,21.10
2019-02-28T15:27:58.427Z,20.50
2019-02-28T15:30:30.505Z,21.23
2019-02-28T15:33:00.225Z,19.73
2019-02-28T15:35:29.026Z,23.87
2019-02-28T15:37:57.836Z,23.80
2019-02-28T15:40:29.092Z,21.53
2019-02-28T15:42:57.842Z,24.00
2019-02-28T15:45:28.541Z,22.77
2019-02-28T15:47:58.999Z,23.27
2019-02-28T15:50:28.070Z,24.67
2019-02-28T15:52:57.405Z,24.20
2019-02-28T15:55:26.926Z,23.50
2019-02-28T15:57:55.711Z,24.13
2019-02-28T16:00:28.442Z,24.07
2019-02-28T16:02:57.726Z,24.60
2019-02-28T16:05:26.460Z,25.40
2019-02-28T16:07:55.791Z,25.80
2019-02-28T16:10:28.611Z,23.80
2019-02-28T16:12:56.897Z,24.63
2019-02-28T16:15:25.791Z,24.73
2019-02-28T16:17:54.567Z,25.23
2019-02-28T16:20:25.018Z,26.50
2019-02-28T16:22:55.572Z,24.90
2019-02-28T16:25:26.888Z,24.87
2019-02-28T16:27:55.694Z,23.63
2019-02-28T16:30:24.459Z,25.23
2019-02-28T16:32:53.183Z,25.43
2019-02-28T16:35:22.239Z,24.97
2019-02-28T16:37:51.650Z,24.37
2019-02-28T16:40:25.985Z,24.23
2019-02-28T16:42:51.213Z,25.80
2019-02-28T16:45:33.658Z,24.70
2019-02-28T16:48:05.766Z,24.67
2019-02-28T16:50:34.551Z,23.43
2019-02-28T16:53:03.696Z,25.30
2019-02-28T16:55:32.654Z,24.23
2019-02-28T16:58:01.519Z,24.20
2019-02-28T17:00:30.315Z,23.33
2019-02-28T17:02:58.994Z,25.30
2019-02-28T17:05:28.395Z,23.77
2019-02-28T17:07:57.401Z,23.17
2019-02-28T17:10:33.794Z,21.97
2019-02-28T17:13:35.581Z,26.57
2019-02-28T17:16:27.075Z,24.03
2019-02-28T17:18:56.877Z,23.43
2019-02-28T17:21:26.239Z,21.90
2019-02-28T17:23:55.551Z,22.07
2019-02-28T17:26:42.149Z,22.50
2019-02-28T17:29:25.124Z,23.87
2019-02-28T17:31:54.251Z,22.97
2019-02-28T17:34:24.335Z,22.37
2019-02-28T17:36:53.361Z,21.60
2019-02-28T17:39:22.133Z,20.80
2019-02-28T17:41:51.120Z,23.20
2019-02-28T17:44:50.083Z,20.93
2019-02-28T17:47:29.786Z,21.90
2019-02-28T17:50:42.769Z,21.53
2019-02-28T17:53:49.525Z,20.27
2019-02-28T17:56:59.142Z,19.97
2019-02-28T18:00:02.196Z,21.60
2019-02-28T18:02:54.250Z,19.97
2019-02-28T18:06:00.402Z,21.77
2019-02-28T18:08:59.086Z,21.30
2019-02-28T18:12:14.882Z,20.87
2019-02-28T18:14:51.532Z,18.70
2019-02-28T18:18:05.441Z,20.77
2019-02-28T18:21:27.061Z,21.07
2019-02-28T18:24:32.117Z,21.17
2019-02-28T18:27:20.393Z,20.87
2019-02-28T18:30:25.219Z,20.53
2019-02-28T18:32:53.929Z,20.20
2019-02-28T18:35:22.737Z,20.40
2019-02-28T18:37:51.498Z,20.47
2019-02-28T18:40:22.667Z,21.80
2019-02-28T18:42:51.528Z,20.83
2019-02-28T18:45:22.446Z,20.97
2019-02-28T18:47:51.658Z,21.50
2019-02-28T18:50:20.509Z,21.03
2019-02-28T18:52:49.321Z,20.50
2019-02-28T18:55:19.052Z,20.30
2019-02-28T18:57:47.896Z,19.47
2019-02-28T19:00:18.904Z,20.90
2019-02-28T19:02:47.679Z,19.20
2019-02-28T19:05:16.409Z,20.10
2019-02-28T19:07:45.088Z,22.50
2019-02-28T19:10:13.893Z,22.57
2019-02-28T19:12:42.649Z,21.67
2019-02-28T19:15:11.515Z,21.17
2019-02-28T19:17:40.230Z,20.50
2019-02-28T19:20:08.969Z,21.37
2019-02-28T19:22:37.628Z,20.67
2019-02-28T19:25:07.083Z,20.90
2019-02-28T19:27:35.823Z,21.37
2019-02-28T19:30:06.264Z,20.13
2019-02-28T19:32:34.895Z,21.47
2019-02-28T19:35:03.676Z,20.60
2019-02-28T19:37:32.459Z,20.33
2019-02-28T19:40:01.562Z,22.17
2019-02-28T19:42:34.058Z,22.10
2019-02-28T19:45:02.835Z,20.93
2019-02-28T19:47:31.483Z,23.23
2019-02-28T19:50:00.475Z,22.27
2019-02-28T19:52:29.472Z,23.87
2019-02-28T19:54:58.194Z,23.03
2019-02-28T19:57:26.875Z,22.43
2019-02-28T19:59:55.549Z,23.73
2019-02-28T20:02:24.384Z,24.20
2019-02-28T20:04:53.521Z,22.70
2019-02-28T20:07:22.220Z,23.73
2019-02-28T20:09:50.980Z,23.40
2019-02-28T20:12:19.807Z,24.00
2019-02-28T20:14:48.603Z,22.27
2019-02-28T20:17:17.775Z,24.87
2019-02-28T20:19:46.568Z,23.60
2019-02-28T20:22:15.381Z,23.80
2019-02-28T20:24:44.521Z,22.53
2019-02-28T20:27:13.806Z,22.70
2019-02-28T20:29:42.544Z,23.47
2019-02-28T20:32:11.661Z,24.13
2019-02-28T20:34:40.342Z,22.67
2019-02-28T20:37:09.030Z,25.33
2019-02-28T20:39:38.427Z,24.30
2019-02-28T20:42:08.371Z,23.90
2019-02-28T20:44:37.038Z,24.27
2019-02-28T20:47:05.739Z,22.90
2019-02-28T20:49:34.854Z,22.07
2019-02-28T20:52:03.529Z,22.43
2019-02-28T20:54:32.596Z,23.73
2019-02-28T20:57:01.697Z,22.97
2019-02-28T20:59:30.493Z,23.37
2019-02-28T21:01:59.200Z,22.13
2019-02-28T21:04:28.312Z,22.57
2019-02-28T21:06:57.594Z,21.43
2019-02-28T21:09:26.585Z,22.03
2019-02-28T21:11:55.546Z,22.83
2019-02-28T21:14:24.572Z,22.37
2019-02-28T21:16:53.398Z,23.50
2019-02-28T21:19:22.120Z,22.70
2019-02-28T21:21:50.921Z,23.03
2019-02-28T21:24:20.225Z,22.10
2019-02-28T21:26:49.420Z,23.20
2019-02-28T21:29:18.277Z,20.60
2019-02-28T21:31:47.248Z,21.63
2019-02-28T21:34:16.082Z,21.70
2019-02-28T21:36:44.988Z,20.63
2019-02-28T21:39:14.151Z,20.93
2019-02-28T21:41:43.005Z,22.60
2019-02-28T21:44:11.826Z,22.20
2019-02-28T21:46:40.828Z,20.90
2019-02-28T21:49:09.853Z,20.60
2019-02-28T21:51:38.995Z,21.63
2019-02-28T21:56:48.772Z,22.00
2019-02-28T21:59:17.969Z,21.60
2019-02-28T22:01:46.669Z,23.20
2019-02-28T22:04:15.407Z,22.47
2019-02-28T22:06:44.215Z,20.47
2019-02-28T22:09:13.123Z,21.60
2019-02-28T22:11:41.904Z,21.30
2019-02-28T22:14:10.586Z,19.60
2019-02-28T22:16:39.378Z,20.13
2019-02-28T22:19:08.046Z,21.60
2019-02-28T22:21:36.802Z,20.37
2019-02-28T22:24:05.533Z,20.17
2019-02-28T22:26:34.296Z,20.23
2019-02-28T22:29:03.240Z,19.07
2019-02-28T22:31:50.115Z,18.40
2019-02-28T22:34:29.515Z,20.10
2019-02-28T22:36:58.473Z,19.20
2019-02-28T22:39:27.161Z,20.27
2019-02-28T22:41:55.856Z,17.87
2019-02-28T22:44:24.590Z,19.00
2019-02-28T22:46:53.354Z,18.87
2019-02-28T22:49:22.101Z,18.70
2019-02-28T22:51:50.890Z,18.97
2019-02-28T22:54:19.959Z,18.97
2019-02-28T22:56:48.677Z,18.23
2019-02-28T22:59:17.429Z,18.33
2019-02-28T23:01:47.278Z,19.13
2019-02-28T23:04:17.001Z,17.10
2019-02-28T23:06:45.823Z,16.83
2019-02-28T23:09:14.546Z,16.53
2019-02-28T23:11:43.608Z,17.00
2019-02-28T23:14:12.341Z,16.23
2019-02-28T23:16:41.157Z,17.37
2019-02-28T23:19:09.867Z,17.30
2019-02-28T23:21:38.626Z,17.67
2019-02-28T23:24:07.362Z,16.37
2019-02-28T23:27:09.879Z,17.00
2019-02-28T23:29:42.837Z,15.70
2019-02-28T23:32:36.694Z,16.00
2019-02-28T23:35:09.792Z,15.70
2019-02-28T23:37:38.500Z,15.97
2019-02-28T23:40:07.495Z,15.87
2019-02-28T23:42:36.372Z,15.97
2019-02-28T23:45:05.620Z,15.97
2019-02-28T23:47:34.463Z,16.67
2019-02-28T23:50:03.691Z,14.90
2019-02-28T23:52:32.871Z,16.43
2019-02-28T23:55:01.632Z,15.67
2019-02-28T23:57:30.946Z,14.90
2019-02-28T23:59:59.610Z,15.07
